Time;durP1;ratioP1;P1;durP2;ratioP2;P2;SDS_P1;SDS_P2;PMS_P1;PMS_P2;Temp;Humidity;BMP_temperature;BMP_pressure;BME280_temperature;BME280_humidity;BME280_pressure;Samples;Min_cycle;Max_cycle;Signal;HPM_P1;HPM_P2
2023/03/03 00:00:29;;;;;;;145.57;18.88;;;;;;;;;;5036229;28;20041;-75
2023/03/03 00:02:59;;;;;;;100.18;16.10;;;;;;;;;;5054104;28;20059;-76
2023/03/03 00:05:25;;;;;;;169.98;18.17;;;;;;;;;;5052465;28;20495;-76
2023/03/03 00:07:51;;;;;;;92.70;16.30;;;;;;;;;;5036147;28;20395;-77
2023/03/03 00:10:17;;;;;;;102.80;15.60;;;;;;;;;;5052106;28;20041;-75
2023/03/03 00:12:46;;;;;;;121.80;16.65;;;;;;;;;;5053622;28;20041;-75
2023/03/03 00:15:14;;;;;;;95.00;16.27;;;;;;;;;;5035118;28;20048;-75
2023/03/03 00:17:40;;;;;;;107.45;15.32;;;;;;;;;;5052273;28;20041;-75
2023/03/03 00:20:26;;;;;;;112.47;15.90;;;;;;;;;;5052356;28;20558;-75
2023/03/03 00:22:52;;;;;;;82.25;17.00;;;;;;;;;;5052054;28;20079;-75
2023/03/03 00:25:18;;;;;;;94.70;16.05;;;;;;;;;;5051604;28;20052;-75
2023/03/03 00:27:44;;;;;;;94.78;15.77;;;;;;;;;;5051931;28;20047;-76
2023/03/03 00:30:19;;;;;;;90.78;16.67;;;;;;;;;;5051849;28;20044;-76
2023/03/03 00:32:46;;;;;;;67.78;14.02;;;;;;;;;;5053184;28;20039;-75
2023/03/03 00:35:18;;;;;;;75.25;14.88;;;;;;;;;;5051320;28;20049;-75
2023/03/03 00:37:44;;;;;;;84.60;15.02;;;;;;;;;;5052105;28;20608;-75
2023/03/03 00:40:13;;;;;;;91.70;15.10;;;;;;;;;;5051480;28;20045;-76
2023/03/03 00:42:40;;;;;;;86.93;15.38;;;;;;;;;;5051780;28;20044;-76
2023/03/03 00:45:23;;;;;;;86.10;14.20;;;;;;;;;;5051529;28;20036;-76
2023/03/03 00:47:50;;;;;;;87.90;13.95;;;;;;;;;;5052989;28;20052;-76
2023/03/03 00:50:33;;;;;;;83.25;13.73;;;;;;;;;;5034567;28;20123;-76
2023/03/03 00:53:07;;;;;;;81.32;14.18;;;;;;;;;;5053019;28;20116;-76
2023/03/03 00:55:34;;;;;;;72.20;14.85;;;;;;;;;;5052547;28;20536;-76
2023/03/03 00:58:00;;;;;;;62.67;13.48;;;;;;;;;;5051644;28;20037;-76
2023/03/03 01:00:26;;;;;;;70.00;13.95;;;;;;;;;;5051384;28;20395;-76
2023/03/03 01:02:52;;;;;;;64.93;14.00;;;;;;;;;;5051818;28;20341;-77
2023/03/03 01:05:18;;;;;;;77.43;13.40;;;;;;;;;;5051050;28;20049;-76
2023/03/03 01:07:44;;;;;;;64.50;13.38;;;;;;;;;;5051645;28;20403;-76
2023/03/03 01:10:11;;;;;;;70.30;12.48;;;;;;;;;;5034638;28;20044;-77
2023/03/03 01:12:37;;;;;;;88.05;13.25;;;;;;;;;;5052511;28;20495;-76
2023/03/03 01:15:04;;;;;;;65.22;12.32;;;;;;;;;;5052280;28;20051;-77
2023/03/03 01:17:30;;;;;;;73.85;13.32;;;;;;;;;;5050949;28;20040;-76
2023/03/03 01:19:57;;;;;;;66.80;11.60;;;;;;;;;;5052567;28;20118;-76
2023/03/03 01:22:23;;;;;;;47.70;12.80;;;;;;;;;;5052107;28;20051;-77
2023/03/03 01:24:49;;;;;;;66.22;12.98;;;;;;;;;;5026075;28;20053;-76
2023/03/03 01:27:15;;;;;;;96.28;13.88;;;;;;;;;;5050972;28;20033;-76
2023/03/03 01:29:41;;;;;;;72.95;13.43;;;;;;;;;;5051008;28;20056;-77
2023/03/03 01:32:07;;;;;;;69.38;13.55;;;;;;;;;;5051415;28;20068;-76
2023/03/03 01:34:33;;;;;;;67.90;13.18;;;;;;;;;;5051997;28;20495;-76
2023/03/03 01:36:59;;;;;;;74.00;13.52;;;;;;;;;;5050908;28;20060;-76
2023/03/03 01:39:26;;;;;;;76.50;13.13;;;;;;;;;;5051083;28;20391;-76
2023/03/03 01:41:52;;;;;;;68.30;13.93;;;;;;;;;;5051000;28;20435;-77
2023/03/03 01:44:18;;;;;;;89.30;13.52;;;;;;;;;;5050687;28;20052;-76
2023/03/03 01:46:44;;;;;;;64.38;11.98;;;;;;;;;;5050890;28;20048;-77
2023/03/03 01:49:13;;;;;;;52.25;11.93;;;;;;;;;;5050853;28;20049;-76
2023/03/03 01:51:43;;;;;;;81.82;13.15;;;;;;;;;;5050858;28;20080;-76
2023/03/03 01:54:12;;;;;;;69.03;11.50;;;;;;;;;;5034315;28;20051;-76
2023/03/03 01:56:38;;;;;;;67.95;11.30;;;;;;;;;;5050072;28;20083;-76
2023/03/03 01:59:24;;;;;;;74.50;12.73;;;;;;;;;;5050823;28;20033;-76
2023/03/03 02:01:50;;;;;;;41.70;9.85;;;;;;;;;;5043509;28;20036;-76
2023/03/03 02:04:17;;;;;;;96.82;13.43;;;;;;;;;;5060580;28;20047;-76
2023/03/03 02:06:51;;;;;;;74.20;13.27;;;;;;;;;;5052788;28;20052;-76
2023/03/03 02:09:23;;;;;;;63.50;12.93;;;;;;;;;;5061079;28;20529;-76
2023/03/03 02:11:50;;;;;;;112.85;13.80;;;;;;;;;;5050529;28;20132;-75
2023/03/03 02:14:16;;;;;;;132.57;15.25;;;;;;;;;;5034087;28;20048;-76
2023/03/03 02:16:42;;;;;;;70.88;12.95;;;;;;;;;;5051795;28;20041;-76
2023/03/03 02:19:13;;;;;;;266.10;19.48;;;;;;;;;;5051750;28;20098;-75
2023/03/03 02:21:39;;;;;;;78.32;13.77;;;;;;;;;;5050031;28;20068;-76
2023/03/03 02:24:08;;;;;;;174.48;15.40;;;;;;;;;;5051644;28;20041;-76
2023/03/03 02:26:36;;;;;;;106.68;13.90;;;;;;;;;;5051499;28;20491;-77
2023/03/03 02:29:03;;;;;;;60.92;10.57;;;;;;;;;;5050350;28;20048;-76
2023/03/03 02:31:29;;;;;;;112.75;13.10;;;;;;;;;;5060337;28;20044;-76
2023/03/03 02:33:56;;;;;;;134.85;13.13;;;;;;;;;;5054449;28;20067;-76
2023/03/03 02:36:24;;;;;;;63.10;10.80;;;;;;;;;;5034280;28;20036;-76
2023/03/03 02:38:59;;;;;;;116.43;12.63;;;;;;;;;;5051714;28;20116;-76
2023/03/03 02:41:32;;;;;;;101.35;11.52;;;;;;;;;;5053677;28;20037;-76
2023/03/03 02:44:09;;;;;;;169.27;13.48;;;;;;;;;;5052766;28;20102;-76
2023/03/03 02:46:36;;;;;;;76.43;9.93;;;;;;;;;;5073032;28;20041;-75
2023/03/03 02:49:03;;;;;;;112.93;11.45;;;;;;;;;;5073983;28;20045;-76
2023/03/03 02:51:30;;;;;;;143.05;12.00;;;;;;;;;;5056770;28;20078;-77
2023/03/03 02:53:56;;;;;;;57.75;8.75;;;;;;;;;;5063975;28;20463;-76
2023/03/03 02:56:22;;;;;;;36.92;7.78;;;;;;;;;;5053622;28;20049;-76
2023/03/03 02:58:48;;;;;;;83.28;10.57;;;;;;;;;;5044943;28;20082;-77
2023/03/03 03:01:14;;;;;;;142.63;11.55;;;;;;;;;;5061505;28;20036;-76
2023/03/03 03:03:40;;;;;;;95.82;9.73;;;;;;;;;;5057042;28;20029;-76
2023/03/03 03:06:06;;;;;;;64.15;9.10;;;;;;;;;;5052776;28;20044;-77
2023/03/03 03:08:32;;;;;;;114.25;10.27;;;;;;;;;;5053038;28;20063;-76
2023/03/03 03:10:59;;;;;;;91.43;8.55;;;;;;;;;;5053660;28;20380;-77
2023/03/03 03:13:25;;;;;;;90.63;10.73;;;;;;;;;;5070314;28;20045;-76
2023/03/03 03:15:51;;;;;;;127.60;10.25;;;;;;;;;;5074311;28;20041;-76
2023/03/03 03:18:17;;;;;;;118.75;10.45;;;;;;;;;;5073498;28;20125;-77
2023/03/03 03:20:43;;;;;;;107.47;11.00;;;;;;;;;;5044986;28;20486;-77
2023/03/03 03:23:11;;;;;;;116.53;12.18;;;;;;;;;;5061401;28;20052;-76
2023/03/03 03:25:44;;;;;;;133.00;13.32;;;;;;;;;;5071215;28;20048;-76
2023/03/03 03:28:11;;;;;;;151.00;12.25;;;;;;;;;;5073308;28;20048;-76
2023/03/03 03:30:37;;;;;;;134.90;12.68;;;;;;;;;;5056473;28;20572;-77
2023/03/03 03:33:03;;;;;;;135.57;13.48;;;;;;;;;;5065126;28;20033;-76
2023/03/03 03:35:29;;;;;;;104.72;11.65;;;;;;;;;;5069664;28;20044;-76
2023/03/03 03:37:56;;;;;;;148.52;13.95;;;;;;;;;;5074130;28;20068;-76
2023/03/03 03:40:22;;;;;;;148.13;14.77;;;;;;;;;;5042873;28;20083;-76
2023/03/03 03:42:48;;;;;;;74.65;11.10;;;;;;;;;;5083559;28;20055;-75
2023/03/03 03:45:14;;;;;;;145.80;13.05;;;;;;;;;;5037351;28;20483;-76
2023/03/03 03:47:41;;;;;;;120.90;13.32;;;;;;;;;;5069083;28;20055;-76
2023/03/03 03:50:07;;;;;;;101.43;11.70;;;;;;;;;;5063915;28;20124;-75
2023/03/03 03:52:34;;;;;;;267.27;17.13;;;;;;;;;;5054550;28;20171;-75
2023/03/03 03:55:00;;;;;;;243.40;15.05;;;;;;;;;;5071705;28;20060;-75
2023/03/03 03:57:26;;;;;;;112.97;10.80;;;;;;;;;;5073805;28;20052;-75
2023/03/03 03:59:52;;;;;;;140.80;12.57;;;;;;;;;;5072146;28;20103;-77
2023/03/03 04:02:18;;;;;;;210.73;13.15;;;;;;;;;;5036708;28;20045;-77
2023/03/03 04:04:44;;;;;;;102.80;9.60;;;;;;;;;;5070731;28;20433;-77
2023/03/03 04:07:10;;;;;;;91.10;9.05;;;;;;;;;;5072436;28;20399;-77
2023/03/03 04:09:36;;;;;;;147.85;11.93;;;;;;;;;;5071959;28;20047;-76
2023/03/03 04:12:03;;;;;;;98.47;8.73;;;;;;;;;;5065038;28;20037;-77
2023/03/03 04:14:29;;;;;;;37.20;6.75;;;;;;;;;;5065648;28;20461;-76
2023/03/03 04:16:55;;;;;;;104.50;9.13;;;;;;;;;;5071622;28;20414;-76
2023/03/03 04:19:21;;;;;;;127.70;9.35;;;;;;;;;;5073486;28;20495;-76
2023/03/03 04:21:47;;;;;;;108.60;9.38;;;;;;;;;;5069265;28;20407;-77
2023/03/03 04:24:14;;;;;;;60.42;7.03;;;;;;;;;;5062093;28;20036;-77
2023/03/03 04:26:40;;;;;;;147.32;9.52;;;;;;;;;;5055104;28;20048;-77
2023/03/03 04:29:06;;;;;;;79.88;6.75;;;;;;;;;;5073210;28;20033;-77
2023/03/03 04:31:32;;;;;;;118.85;8.27;;;;;;;;;;5073106;28;20048;-77
2023/03/03 04:33:58;;;;;;;87.53;6.72;;;;;;;;;;5065923;28;20406;-77
2023/03/03 04:36:24;;;;;;;156.35;8.45;;;;;;;;;;5051872;28;20045;-77
2023/03/03 04:38:50;;;;;;;139.88;8.88;;;;;;;;;;5056859;28;20497;-77
2023/03/03 04:41:16;;;;;;;142.65;8.77;;;;;;;;;;5071839;28;20047;-77
2023/03/03 04:43:42;;;;;;;89.82;6.93;;;;;;;;;;5069431;28;20044;-75
2023/03/03 04:46:08;;;;;;;103.32;8.38;;;;;;;;;;5055846;28;20041;-76
2023/03/03 04:48:35;;;;;;;98.88;6.88;;;;;;;;;;5072947;28;20505;-75
2023/03/03 04:51:01;;;;;;;104.93;7.70;;;;;;;;;;5071235;28;20051;-76
2023/03/03 04:53:27;;;;;;;95.22;7.70;;;;;;;;;;5063585;28;20037;-77
2023/03/03 04:55:53;;;;;;;76.90;6.93;;;;;;;;;;5035043;28;20487;-76
2023/03/03 04:58:19;;;;;;;85.60;7.70;;;;;;;;;;5072747;28;20079;-77
2023/03/03 05:00:46;;;;;;;211.13;10.07;;;;;;;;;;5068755;28;20479;-76
2023/03/03 05:03:12;;;;;;;177.90;9.82;;;;;;;;;;5038011;28;20041;-77
2023/03/03 05:05:40;;;;;;;163.15;9.60;;;;;;;;;;5050653;28;20453;-76
2023/03/03 05:08:06;;;;;;;206.75;10.55;;;;;;;;;;5051001;28;20049;-77
2023/03/03 05:10:32;;;;;;;329.05;14.00;;;;;;;;;;5051475;28;20052;-77
2023/03/03 05:12:58;;;;;;;262.58;12.25;;;;;;;;;;5034284;28;20052;-77
2023/03/03 05:15:24;;;;;;;231.65;11.38;;;;;;;;;;5051103;28;20116;-76
2023/03/03 05:17:52;;;;;;;89.20;7.03;;;;;;;;;;5051251;28;20475;-76
2023/03/03 05:20:18;;;;;;;171.05;10.32;;;;;;;;;;5052244;28;20097;-77
2023/03/03 05:22:44;;;;;;;225.05;10.70;;;;;;;;;;5050743;28;20552;-76
2023/03/03 05:25:12;;;;;;;225.93;11.52;;;;;;;;;;5064575;28;20045;-75
2023/03/03 05:27:38;;;;;;;224.52;10.38;;;;;;;;;;5051067;28;20079;-76
2023/03/03 05:30:04;;;;;;;180.10;9.05;;;;;;;;;;5052275;28;20041;-76
2023/03/03 05:32:30;;;;;;;208.40;9.80;;;;;;;;;;5063048;28;20056;-76
2023/03/03 05:34:56;;;;;;;188.25;10.27;;;;;;;;;;5034428;28;20094;-76
2023/03/03 05:37:23;;;;;;;165.93;9.15;;;;;;;;;;5050938;28;20041;-76
2023/03/03 05:39:49;;;;;;;97.70;7.55;;;;;;;;;;5040468;28;20045;-76
2023/03/03 05:42:15;;;;;;;80.03;7.47;;;;;;;;;;5065463;28;20124;-76
2023/03/03 05:44:41;;;;;;;130.75;9.15;;;;;;;;;;5055521;28;20082;-76
2023/03/03 05:47:08;;;;;;;77.10;6.80;;;;;;;;;;5051012;28;20446;-77
2023/03/03 05:49:34;;;;;;;53.33;6.05;;;;;;;;;;5055322;28;20044;-76
2023/03/03 05:52:01;;;;;;;99.85;7.63;;;;;;;;;;5060202;28;20045;-76
2023/03/03 05:54:27;;;;;;;100.45;7.57;;;;;;;;;;5067419;28;20094;-76
2023/03/03 05:56:53;;;;;;;115.18;7.43;;;;;;;;;;5061828;28;20407;-75
2023/03/03 05:59:19;;;;;;;64.72;6.65;;;;;;;;;;5066685;28;20070;-75
2023/03/03 06:01:46;;;;;;;67.50;6.90;;;;;;;;;;5063908;28;20086;-75
2023/03/03 06:04:12;;;;;;;73.68;6.90;;;;;;;;;;5058282;28;20495;-75
2023/03/03 06:06:38;;;;;;;70.43;5.40;;;;;;;;;;5069741;28;20123;-75
2023/03/03 06:09:04;;;;;;;33.25;5.68;;;;;;;;;;5070412;28;20059;-75
2023/03/03 06:11:30;;;;;;;47.65;6.00;;;;;;;;;;5067832;28;20045;-74
2023/03/03 06:13:56;;;;;;;25.10;5.28;;;;;;;;;;5051706;28;20609;-75
2023/03/03 06:16:22;;;;;;;52.42;5.95;;;;;;;;;;5065508;28;20048;-76
2023/03/03 06:18:48;;;;;;;58.97;6.63;;;;;;;;;;5066367;28;20037;-76
2023/03/03 06:21:14;;;;;;;46.75;6.22;;;;;;;;;;5054200;28;20119;-74
2023/03/03 06:23:41;;;;;;;86.43;7.75;;;;;;;;;;5056948;28;20040;-76
2023/03/03 06:26:07;;;;;;;63.47;6.90;;;;;;;;;;5074277;28;20051;-76
2023/03/03 06:28:33;;;;;;;59.22;6.82;;;;;;;;;;5056951;28;20049;-76
2023/03/03 06:30:59;;;;;;;72.07;7.75;;;;;;;;;;5064666;28;20098;-75
2023/03/03 06:33:25;;;;;;;69.85;7.82;;;;;;;;;;5043763;28;20403;-75
2023/03/03 06:35:52;;;;;;;123.90;8.13;;;;;;;;;;5073931;28;20036;-75
2023/03/03 06:38:18;;;;;;;109.68;8.75;;;;;;;;;;5074180;28;20045;-75
2023/03/03 06:40:45;;;;;;;170.52;9.60;;;;;;;;;;5073855;28;20090;-75
2023/03/03 06:43:11;;;;;;;139.90;9.07;;;;;;;;;;5075319;28;20471;-76
2023/03/03 06:45:37;;;;;;;183.02;10.50;;;;;;;;;;5075396;28;20399;-75
2023/03/03 06:48:03;;;;;;;155.32;8.93;;;;;;;;;;5074859;28;20039;-75
2023/03/03 06:50:29;;;;;;;123.78;8.95;;;;;;;;;;5062082;28;20087;-75
2023/03/03 06:53:15;;;;;;;164.10;9.20;;;;;;;;;;5072810;28;20512;-75
2023/03/03 06:55:43;;;;;;;125.50;8.23;;;;;;;;;;5073870;28;20072;-75
2023/03/03 06:58:17;;;;;;;144.73;9.20;;;;;;;;;;5055358;28;20082;-76
2023/03/03 07:00:45;;;;;;;105.22;7.45;;;;;;;;;;5048524;28;20069;-76
2023/03/03 07:03:15;;;;;;;54.58;7.57;;;;;;;;;;5034108;28;20507;-76
2023/03/03 07:05:41;;;;;;;105.50;7.72;;;;;;;;;;5055086;28;20055;-76
2023/03/03 07:08:18;;;;;;;87.38;7.43;;;;;;;;;;5053905;28;20106;-75
2023/03/03 07:10:45;;;;;;;98.55;8.07;;;;;;;;;;5053858;28;20571;-76
2023/03/03 07:13:17;;;;;;;89.13;8.70;;;;;;;;;;5053633;28;20565;-77
2023/03/03 07:15:43;;;;;;;70.43;7.60;;;;;;;;;;5054741;28;20045;-76
2023/03/03 07:18:21;;;;;;;50.88;6.90;;;;;;;;;;5053320;28;20049;-75
2023/03/03 07:20:47;;;;;;;74.80;7.35;;;;;;;;;;5022870;28;20103;-75
2023/03/03 07:23:19;;;;;;;64.22;7.38;;;;;;;;;;5054374;28;20061;-76
2023/03/03 07:25:45;;;;;;;56.75;6.93;;;;;;;;;;5053621;28;20041;-75
2023/03/03 07:28:32;;;;;;;79.78;8.90;;;;;;;;;;5053220;28;20045;-75
2023/03/03 07:30:58;;;;;;;;;;;;;;;;;;5087302;28;20479;-75
2023/03/03 07:33:28;;;;;;;62.25;7.53;;;;;;;;;;5054788;28;19923;-76
2023/03/03 07:35:58;;;;;;;47.00;6.50;;;;;;;;;;5054234;28;20606;-76
2023/03/03 07:38:26;;;;;;;28.73;6.18;;;;;;;;;;5053164;28;20045;-76
2023/03/03 07:40:53;;;;;;;40.90;7.03;;;;;;;;;;5036464;28;20044;-76
2023/03/03 07:43:35;;;;;;;32.47;6.32;;;;;;;;;;5069378;28;20120;-76
2023/03/03 07:46:11;;;;;;;40.05;6.75;;;;;;;;;;5055997;28;20406;-75
2023/03/03 07:48:41;;;;;;;20.00;6.28;;;;;;;;;;5072804;28;20051;-76
2023/03/03 07:51:33;;;;;;;24.48;5.72;;;;;;;;;;5072194;28;20033;-76
2023/03/03 07:54:19;;;;;;;16.25;5.57;;;;;;;;;;5057850;28;20049;-77
2023/03/03 07:56:46;;;;;;;21.60;5.47;;;;;;;;;;5047524;28;20045;-76
2023/03/03 07:59:22;;;;;;;20.92;5.30;;;;;;;;;;5042217;28;20037;-77
2023/03/03 08:01:48;;;;;;;;;;;;;;;;;;5056482;28;20051;-76
2023/03/03 08:04:23;;;;;;;9.48;4.70;;;;;;;;;;5072659;28;20281;-76
2023/03/03 08:06:50;;;;;;;10.82;4.00;;;;;;;;;;5065938;28;20123;-77
2023/03/03 08:09:16;;;;;;;7.85;3.47;;;;;;;;;;5052100;28;20060;-77
2023/03/03 08:11:51;;;;;;;5.47;3.55;;;;;;;;;;5052395;28;20045;-77
2023/03/03 08:14:21;;;;;;;5.15;3.58;;;;;;;;;;5052308;28;20045;-77
2023/03/03 08:16:47;;;;;;;77.13;5.03;;;;;;;;;;5052325;28;20446;-77
2023/03/03 08:19:17;;;;;;;51.72;4.85;;;;;;;;;;5035569;28;20045;-77
2023/03/03 08:21:44;;;;;;;68.70;5.43;;;;;;;;;;5035150;28;20041;-77
2023/03/03 08:24:10;;;;;;;32.22;4.43;;;;;;;;;;5052345;28;20083;-77
2023/03/03 08:26:36;;;;;;;10.73;3.88;;;;;;;;;;5052051;28;20178;-77
2023/03/03 08:29:02;;;;;;;9.00;3.85;;;;;;;;;;5052283;28;20395;-77
2023/03/03 08:31:28;;;;;;;10.13;3.90;;;;;;;;;;5051991;28;20081;-78
2023/03/03 08:33:54;;;;;;;7.75;3.90;;;;;;;;;;5051978;28;20047;-77
2023/03/03 08:36:20;;;;;;;10.60;4.00;;;;;;;;;;5052910;28;20041;-78
2023/03/03 08:38:46;;;;;;;19.83;3.78;;;;;;;;;;5052164;28;20446;-78
2023/03/03 08:41:12;;;;;;;4.78;3.67;;;;;;;;;;5052344;28;20076;-78
2023/03/03 08:43:39;;;;;;;14.02;3.60;;;;;;;;;;5018817;28;20041;-78
2023/03/03 08:46:06;;;;;;;8.88;3.50;;;;;;;;;;5055426;28;20475;-78
2023/03/03 08:48:32;;;;;;;8.25;3.08;;;;;;;;;;5061644;28;20048;-78
2023/03/03 08:50:59;;;;;;;4.90;2.72;;;;;;;;;;5067377;28;20052;-78
2023/03/03 08:53:26;;;;;;;3.70;2.90;;;;;;;;;;5071407;28;20044;-78
2023/03/03 08:55:52;;;;;;;4.38;3.17;;;;;;;;;;5056474;28;20053;-78
2023/03/03 08:58:19;;;;;;;3.50;2.50;;;;;;;;;;5052413;28;20463;-76
2023/03/03 09:00:45;;;;;;;5.03;2.92;;;;;;;;;;5051356;28;20041;-77
2023/03/03 09:03:11;;;;;;;5.20;2.63;;;;;;;;;;5051183;28;20044;-77
2023/03/03 09:05:38;;;;;;;5.68;3.03;;;;;;;;;;5035026;28;20404;-77
2023/03/03 09:08:04;;;;;;;4.45;3.05;;;;;;;;;;5052622;28;20029;-77
2023/03/03 09:10:31;;;;;;;5.05;3.40;;;;;;;;;;5051068;28;20049;-79
2023/03/03 09:13:00;;;;;;;5.55;3.22;;;;;;;;;;5051312;28;20049;-79
2023/03/03 09:15:32;;;;;;;5.22;3.13;;;;;;;;;;5051160;28;20045;-79
2023/03/03 09:18:00;;;;;;;5.82;3.25;;;;;;;;;;5052624;28;20410;-78
2023/03/03 09:20:35;;;;;;;5.90;3.47;;;;;;;;;;5051303;28;20059;-78
2023/03/03 09:23:21;;;;;;;5.65;3.25;;;;;;;;;;5034298;28;20511;-79
2023/03/03 09:25:47;;;;;;;8.70;3.25;;;;;;;;;;5052551;28;20126;-78
2023/03/03 09:28:34;;;;;;;6.72;3.70;;;;;;;;;;5050864;28;20040;-78
2023/03/03 09:31:01;;;;;;;4.25;3.25;;;;;;;;;;5051193;28;20049;-78
2023/03/03 09:33:44;;;;;;;7.10;3.33;;;;;;;;;;5052378;28;20144;-78
2023/03/03 09:36:27;;;;;;;5.00;2.88;;;;;;;;;;5050916;28;20068;-76
2023/03/03 09:38:54;;;;;;;5.03;3.30;;;;;;;;;;5051135;28;20106;-76
2023/03/03 09:41:30;;;;;;;10.38;4.68;;;;;;;;;;5050806;28;20037;-76
2023/03/03 09:43:56;;;;;;;13.57;7.72;;;;;;;;;;5051118;28;20044;-78
2023/03/03 09:46:37;;;;;;;23.33;9.18;;;;;;;;;;5037385;28;20044;-79
2023/03/03 09:49:10;;;;;;;26.90;12.93;;;;;;;;;;5065768;28;20443;-77
2023/03/03 09:51:42;;;;;;;28.40;14.57;;;;;;;;;;5047684;28;20052;-79
2023/03/03 09:54:08;;;;;;;26.08;12.82;;;;;;;;;;5053957;28;20048;-79
2023/03/03 09:56:37;;;;;;;30.63;14.65;;;;;;;;;;5054811;28;20044;-79
2023/03/03 09:59:21;;;;;;;33.33;17.13;;;;;;;;;;5055216;28;20032;-80
2023/03/03 10:01:51;;;;;;;35.30;17.92;;;;;;;;;;5044082;28;20122;-80
2023/03/03 10:04:56;;;;;;;33.90;18.02;;;;;;;;;;5038784;28;20029;-80
2023/03/03 10:07:28;;;;;;;36.75;19.23;;;;;;;;;;4961899;28;20112;-77
2023/03/03 10:09:57;;;;;;;41.83;24.50;;;;;;;;;;4962193;28;20042;-77
2023/03/03 10:12:42;;;;;;;38.38;19.42;;;;;;;;;;5017175;28;20084;-77
2023/03/03 10:15:17;;;;;;;31.58;17.98;;;;;;;;;;5054620;28;20080;-77
2023/03/03 10:17:46;;;;;;;29.60;16.48;;;;;;;;;;5054319;28;20044;-77
2023/03/03 10:20:30;;;;;;;20.25;10.50;;;;;;;;;;5038006;28;20132;-81
2023/03/03 10:23:01;;;;;;;13.63;7.32;;;;;;;;;;5054401;28;20045;-81
2023/03/03 10:25:27;;;;;;;12.20;6.32;;;;;;;;;;5054224;28;20048;-80
2023/03/03 10:27:56;;;;;;;11.20;6.50;;;;;;;;;;5054456;28;20119;-79
2023/03/03 10:30:42;;;;;;;25.67;12.20;;;;;;;;;;5054533;28;20068;-79
2023/03/03 10:33:17;;;;;;;29.65;15.43;;;;;;;;;;5054173;28;20080;-79
2023/03/03 10:36:09;;;;;;;34.03;17.50;;;;;;;;;;5054043;28;20152;-80
2023/03/03 10:38:54;;;;;;;41.78;21.02;;;;;;;;;;5037349;28;20045;-75
2023/03/03 10:41:29;;;;;;;41.47;20.45;;;;;;;;;;5043232;28;20041;-75
2023/03/03 10:44:04;;;;;;;44.97;22.33;;;;;;;;;;5053818;28;20044;-76
2023/03/03 10:46:43;;;;;;;40.78;22.98;;;;;;;;;;5048360;28;20084;-79
2023/03/03 10:49:13;;;;;;;51.30;26.52;;;;;;;;;;5073059;28;20059;-80
2023/03/03 10:51:45;;;;;;;47.35;26.40;;;;;;;;;;5054814;28;20048;-75
2023/03/03 10:54:14;;;;;;;48.53;25.33;;;;;;;;;;5054871;28;20064;-75
2023/03/03 10:56:48;;;;;;;29.63;16.23;;;;;;;;;;5037024;28;20080;-75
2023/03/03 10:59:15;;;;;;;24.80;13.20;;;;;;;;;;5087144;28;20037;-76
2023/03/03 11:01:44;;;;;;;21.63;13.15;;;;;;;;;;5052812;28;20147;-75
2023/03/03 11:04:16;;;;;;;21.98;13.45;;;;;;;;;;5036593;28;20033;-76
2023/03/03 11:06:57;;;;;;;38.08;20.75;;;;;;;;;;5054674;28;20033;-75
2023/03/03 11:09:46;;;;;;;34.67;19.95;;;;;;;;;;5053637;28;20491;-75
2023/03/03 11:12:15;;;;;;;34.28;18.42;;;;;;;;;;5054601;28;20045;-74
2023/03/03 11:14:46;;;;;;;24.77;15.02;;;;;;;;;;5053522;28;20037;-77
2023/03/03 11:17:22;;;;;;;25.45;13.52;;;;;;;;;;5053609;28;20504;-77
2023/03/03 11:19:49;;;;;;;23.48;11.75;;;;;;;;;;5040891;28;20040;-77
2023/03/03 11:22:24;;;;;;;18.08;10.20;;;;;;;;;;5054729;28;20393;-76
2023/03/03 11:25:11;;;;;;;22.83;10.77;;;;;;;;;;5052682;28;20037;-76
2023/03/03 11:27:50;;;;;;;21.30;11.15;;;;;;;;;;5053084;28;20040;-77
2023/03/03 11:30:16;;;;;;;25.52;10.93;;;;;;;;;;5035788;28;20064;-79
2023/03/03 11:32:45;;;;;;;21.10;11.35;;;;;;;;;;5034983;28;20048;-79
2023/03/03 11:35:23;;;;;;;25.73;11.40;;;;;;;;;;5052343;28;20059;-79
2023/03/03 11:37:52;;;;;;;21.50;11.50;;;;;;;;;;5051733;28;20045;-79
2023/03/03 11:40:23;;;;;;;23.77;10.90;;;;;;;;;;5035495;28;20166;-79
2023/03/03 11:43:08;;;;;;;19.23;10.05;;;;;;;;;;5065652;28;20123;-79
2023/03/03 11:45:48;;;;;;;22.98;10.40;;;;;;;;;;5065250;28;20040;-79
2023/03/03 11:48:18;;;;;;;16.10;6.75;;;;;;;;;;5040812;28;20040;-80
2023/03/03 11:50:47;;;;;;;14.48;6.70;;;;;;;;;;5051865;28;20047;-79
2023/03/03 11:53:36;;;;;;;8.40;4.65;;;;;;;;;;5044550;28;20116;-79
2023/03/03 11:56:08;;;;;;;10.63;3.92;;;;;;;;;;5071250;28;20041;-79
2023/03/03 11:58:39;;;;;;;6.85;2.42;;;;;;;;;;5051778;28;20487;-79
2023/03/03 12:01:10;;;;;;;3.65;1.52;;;;;;;;;;5058730;28;20037;-79
2023/03/03 12:03:59;;;;;;;4.80;1.27;;;;;;;;;;5071478;28;20045;-79
2023/03/03 12:06:28;;;;;;;3.90;1.33;;;;;;;;;;5066492;28;20561;-79
2023/03/03 12:09:13;;;;;;;2.40;1.35;;;;;;;;;;5054963;28;20044;-79
2023/03/03 12:11:51;;;;;;;3.22;1.10;;;;;;;;;;5052848;28;20037;-79
2023/03/03 12:14:24;;;;;;;3.17;1.02;;;;;;;;;;5063588;28;20478;-78
2023/03/03 12:16:58;;;;;;;6.03;1.13;;;;;;;;;;5070141;28;20063;-79
2023/03/03 12:19:24;;;;;;;2.75;1.20;;;;;;;;;;5071559;28;20074;-77
2023/03/03 12:22:11;;;;;;;4.65;1.08;;;;;;;;;;5026520;28;1260563;-77
2023/03/03 12:24:56;;;;;;;5.38;1.27;;;;;;;;;;5058931;28;20076;-77
2023/03/03 12:27:28;;;;;;;3.40;1.05;;;;;;;;;;5080767;28;20044;-77
2023/03/03 12:30:01;;;;;;;5.70;1.30;;;;;;;;;;5057585;28;20048;-77
2023/03/03 12:32:31;;;;;;;4.25;1.10;;;;;;;;;;5035665;28;20045;-77
2023/03/03 12:35:03;;;;;;;3.22;1.10;;;;;;;;;;5066717;28;20514;-76
2023/03/03 12:37:38;;;;;;;4.10;1.30;;;;;;;;;;5065260;28;20105;-77
2023/03/03 12:40:13;;;;;;;4.90;1.33;;;;;;;;;;5082908;28;20041;-77
2023/03/03 12:42:48;;;;;;;4.82;1.27;;;;;;;;;;5064311;28;20105;-77
2023/03/03 12:45:21;;;;;;;4.30;1.20;;;;;;;;;;5056857;28;20052;-76
2023/03/03 12:47:50;;;;;;;3.95;1.10;;;;;;;;;;5070426;28;20044;-76
2023/03/03 12:50:25;;;;;;;6.65;2.50;;;;;;;;;;5071834;28;20051;-76
2023/03/03 12:53:04;;;;;;;6.60;2.00;;;;;;;;;;5071128;28;20040;-76
2023/03/03 12:55:41;;;;;;;3.78;1.35;;;;;;;;;;5060222;28;20051;-76
2023/03/03 12:58:14;;;;;;;4.75;1.30;;;;;;;;;;5051774;28;20556;-76
2023/03/03 13:00:40;;;;;;;2.90;1.08;;;;;;;;;;5057167;28;20039;-76
2023/03/03 13:03:28;;;;;;;4.10;1.60;;;;;;;;;;5056612;28;20098;-75
2023/03/03 13:05:54;;;;;;;5.22;1.80;;;;;;;;;;5059630;28;20537;-76
2023/03/03 13:08:20;;;;;;;4.38;1.38;;;;;;;;;;5071589;28;20534;-76
2023/03/03 13:10:49;;;;;;;6.07;1.20;;;;;;;;;;5071140;28;20051;-76
2023/03/03 13:13:25;;;;;;;3.70;1.23;;;;;;;;;;5071121;28;20111;-76
2023/03/03 13:16:11;;;;;;;3.42;1.00;;;;;;;;;;5072292;28;20044;-76
2023/03/03 13:18:44;;;;;;;3.47;1.17;;;;;;;;;;5053374;28;20044;-76
2023/03/03 13:21:14;;;;;;;4.18;1.13;;;;;;;;;;5051476;28;20045;-76
2023/03/03 13:23:50;;;;;;;3.78;1.20;;;;;;;;;;5069721;28;20169;-76
2023/03/03 13:26:22;;;;;;;4.47;1.10;;;;;;;;;;5071162;28;20040;-77
2023/03/03 13:28:54;;;;;;;3.70;1.20;;;;;;;;;;5070890;28;20506;-76
2023/03/03 13:31:21;;;;;;;2.65;1.13;;;;;;;;;;5071037;28;20044;-76
2023/03/03 13:33:57;;;;;;;2.60;0.98;;;;;;;;;;5070550;28;20128;-76
2023/03/03 13:36:26;;;;;;;4.13;1.17;;;;;;;;;;5071098;28;20044;-76
2023/03/03 13:38:55;;;;;;;4.93;1.40;;;;;;;;;;5071050;28;20569;-76
2023/03/03 13:41:24;;;;;;;5.20;1.20;;;;;;;;;;5070938;28;20128;-76
2023/03/03 13:44:19;;;;;;;2.88;1.20;;;;;;;;;;5070355;28;20094;-76
2023/03/03 13:47:15;;;;;;;6.85;1.50;;;;;;;;;;5040746;28;20060;-76
2023/03/03 13:49:53;;;;;;;3.22;1.25;;;;;;;;;;5067496;28;20093;-76
2023/03/03 13:52:21;;;;;;;6.82;1.25;;;;;;;;;;5072330;28;20133;-76
2023/03/03 13:54:47;;;;;;;5.93;1.20;;;;;;;;;;5066404;28;20033;-76
2023/03/03 13:57:19;;;;;;;7.63;1.20;;;;;;;;;;5063508;28;20076;-77
2023/03/03 14:00:04;;;;;;;8.00;1.20;;;;;;;;;;5070824;28;20042;-78
2023/03/03 14:02:49;;;;;;;5.90;1.00;;;;;;;;;;5027237;28;20033;-78
2023/03/03 14:05:41;;;;;;;6.70;1.10;;;;;;;;;;5079227;28;20039;-76
2023/03/03 14:08:19;;;;;;;8.07;1.23;;;;;;;;;;5068503;28;20127;-76
2023/03/03 14:10:55;;;;;;;7.80;1.63;;;;;;;;;;5059850;28;20100;-76
2023/03/03 14:13:25;;;;;;;6.55;1.30;;;;;;;;;;5054612;28;20115;-76
2023/03/03 14:16:10;;;;;;;7.65;1.45;;;;;;;;;;5070581;28;20407;-76
2023/03/03 14:18:43;;;;;;;6.28;1.77;;;;;;;;;;5070788;28;20040;-76
2023/03/03 14:21:20;;;;;;;4.30;1.20;;;;;;;;;;5070398;28;20036;-76
2023/03/03 14:23:56;;;;;;;7.00;1.60;;;;;;;;;;5057415;28;20506;-76
2023/03/03 14:26:22;;;;;;;7.95;1.92;;;;;;;;;;5054162;28;20578;-78
2023/03/03 14:28:51;;;;;;;19.35;2.28;;;;;;;;;;5064980;28;20041;-76
2023/03/03 14:31:22;;;;;;;6.90;1.50;;;;;;;;;;5050520;28;20052;-78
2023/03/03 14:33:59;;;;;;;8.45;1.50;;;;;;;;;;5070263;28;20464;-77
2023/03/03 14:36:27;;;;;;;5.22;1.42;;;;;;;;;;5070458;28;20123;-78
2023/03/03 14:38:53;;;;;;;8.45;2.25;;;;;;;;;;5070307;28;20074;-78
2023/03/03 14:41:21;;;;;;;8.90;1.80;;;;;;;;;;5065229;28;20052;-78
2023/03/03 14:44:01;;;;;;;8.45;1.50;;;;;;;;;;5054009;28;20044;-77